createdAt,value
2022-11-16T00:01:57.828Z,100.00
2022-11-16T00:07:21.096Z,100.00
2022-11-16T00:12:44.111Z,100.00
2022-11-16T00:18:07.448Z,100.00
2022-11-16T00:23:30.212Z,100.00
2022-11-16T00:28:53.008Z,100.00
2022-11-16T00:34:15.672Z,100.00
2022-11-16T00:39:38.932Z,100.00
2022-11-16T00:45:02.159Z,100.00
2022-11-16T00:50:25.569Z,100.00
2022-11-16T00:55:50.037Z,100.00
2022-11-16T01:01:15.122Z,100.00
2022-11-16T01:06:37.898Z,100.00
2022-11-16T01:12:13.161Z,100.00
2022-11-16T01:17:35.902Z,100.00
2022-11-16T01:22:59.206Z,100.00
2022-11-16T01:28:22.100Z,100.00
2022-11-16T01:33:44.762Z,100.00
2022-11-16T01:39:07.465Z,100.00
2022-11-16T01:44:51.541Z,100.00
2022-11-16T01:50:18.971Z,100.00
2022-11-16T01:55:43.212Z,100.00
2022-11-16T02:01:06.556Z,100.00
2022-11-16T02:07:05.099Z,100.00
2022-11-16T02:12:51.970Z,100.00
2022-11-16T02:18:53.702Z,100.00
2022-11-16T02:24:48.990Z,100.00
2022-11-16T02:30:12.516Z,100.00
2022-11-16T02:35:50.761Z,100.00
2022-11-16T02:41:17.578Z,100.00
2022-11-16T02:46:46.480Z,100.00
2022-11-16T02:52:10.927Z,100.00
2022-11-16T02:58:00.478Z,100.00
2022-11-16T03:04:02.797Z,100.00
2022-11-16T03:09:35.858Z,100.00
2022-11-16T03:15:05.695Z,100.00
2022-11-16T03:20:37.044Z,100.00
2022-11-16T03:26:02.468Z,100.00
2022-11-16T03:31:35.399Z,100.00
2022-11-16T03:37:01.079Z,100.00
2022-11-16T03:42:26.146Z,100.00
2022-11-16T03:47:49.032Z,100.00
2022-11-16T03:53:11.456Z,100.00
2022-11-16T03:58:34.010Z,100.00
2022-11-16T04:03:57.513Z,100.00
2022-11-16T04:09:39.022Z,100.00
2022-11-16T04:15:20.054Z,100.00
2022-11-16T04:21:00.206Z,100.00
2022-11-16T04:26:25.993Z,100.00
2022-11-16T04:32:05.811Z,100.00
2022-11-16T04:37:49.385Z,100.00
2022-11-16T04:43:15.556Z,100.00
2022-11-16T04:48:39.642Z,100.00
2022-11-16T04:54:02.742Z,100.00
2022-11-16T04:59:26.632Z,100.00
2022-11-16T05:04:50.805Z,100.00
2022-11-16T05:10:15.149Z,100.00
2022-11-16T05:15:38.723Z,100.00
2022-11-16T05:21:03.893Z,100.00
2022-11-16T05:26:27.759Z,100.00
2022-11-16T05:31:51.890Z,100.00
2022-11-16T05:37:15.659Z,100.00
2022-11-16T05:42:38.731Z,100.00
2022-11-16T05:48:04.295Z,100.00
2022-11-16T05:53:28.943Z,100.00
2022-11-16T05:58:53.310Z,100.00
2022-11-16T06:04:24.331Z,100.00
2022-11-16T06:09:47.347Z,100.00
2022-11-16T06:15:12.078Z,100.00
2022-11-16T06:20:36.790Z,100.00
2022-11-16T06:26:01.849Z,100.00
2022-11-16T06:31:26.679Z,100.00
2022-11-16T06:36:51.199Z,100.00
2022-11-16T06:42:15.614Z,100.00
2022-11-16T06:47:38.386Z,100.00
2022-11-16T06:53:02.399Z,100.00
2022-11-16T06:58:25.068Z,100.00
2022-11-16T07:03:49.563Z,100.00
2022-11-16T07:09:14.473Z,100.00
2022-11-16T07:14:39.825Z,100.00
2022-11-16T07:20:02.057Z,98.35
2022-11-16T07:25:24.559Z,96.63
2022-11-16T07:30:49.385Z,94.84
2022-11-16T07:36:17.382Z,92.34
2022-11-16T07:41:39.660Z,89.59
2022-11-16T07:47:02.055Z,87.16
2022-11-16T07:52:26.123Z,85.37
2022-11-16T07:57:53.117Z,84.25
2022-11-16T08:03:14.843Z,83.45
2022-11-16T08:08:38.625Z,82.50
2022-11-16T08:14:03.290Z,81.75
2022-11-16T08:19:25.886Z,81.17
2022-11-16T08:24:48.120Z,80.81
2022-11-16T08:30:11.401Z,80.20
2022-11-16T08:35:34.747Z,79.62
2022-11-16T08:40:57.767Z,79.50
2022-11-16T08:46:20.676Z,79.63
2022-11-16T08:51:45.837Z,79.92
2022-11-16T08:57:08.000Z,80.38
2022-11-16T09:02:30.193Z,80.95
2022-11-16T09:07:53.117Z,81.23
2022-11-16T09:13:15.417Z,81.49
2022-11-16T09:18:38.332Z,81.39
2022-11-16T09:24:04.020Z,81.45
2022-11-16T09:29:28.661Z,81.53
2022-11-16T09:34:54.096Z,81.35
2022-11-16T09:40:16.781Z,81.08
2022-11-16T09:46:08.788Z,80.76
2022-11-16T09:51:34.881Z,80.25
2022-11-16T09:57:01.094Z,79.80
2022-11-16T10:02:43.985Z,79.25
2022-11-16T10:08:23.143Z,78.81
2022-11-16T10:14:08.335Z,78.21
2022-11-16T10:19:50.331Z,78.32
2022-11-16T10:25:34.954Z,77.81
2022-11-16T10:31:08.511Z,76.95
2022-11-16T10:36:33.605Z,76.85
2022-11-16T10:42:03.194Z,76.35
2022-11-16T10:47:33.896Z,75.96
2022-11-16T10:52:55.440Z,76.25
2022-11-16T10:58:20.648Z,76.58
2022-11-16T11:03:44.496Z,76.35
2022-11-16T11:09:08.407Z,75.81
2022-11-16T11:14:34.025Z,75.36
2022-11-16T11:19:57.956Z,75.54
2022-11-16T11:25:33.133Z,75.41
2022-11-16T11:31:01.241Z,75.38
2022-11-16T11:36:30.529Z,75.74
2022-11-16T11:42:12.182Z,75.96
2022-11-16T11:48:01.041Z,76.52
2022-11-16T11:53:34.333Z,77.04
2022-11-16T11:59:01.301Z,77.58
2022-11-16T12:05:00.378Z,77.25
2022-11-16T12:11:00.638Z,77.60
2022-11-16T12:16:43.100Z,77.53
2022-11-16T12:22:18.743Z,77.58
2022-11-16T12:28:17.638Z,77.68
2022-11-16T12:33:44.822Z,78.06
2022-11-16T12:39:36.184Z,77.97
2022-11-16T12:45:32.849Z,77.91
2022-11-16T12:51:31.416Z,77.95
2022-11-16T12:57:24.552Z,78.00
2022-11-16T13:03:20.159Z,78.41
2022-11-16T13:09:14.188Z,78.14
2022-11-16T13:14:47.204Z,78.30
2022-11-16T13:20:55.459Z,78.76
2022-11-16T13:26:29.012Z,79.08
2022-11-16T13:32:08.674Z,79.55
2022-11-16T13:37:54.220Z,79.22
2022-11-16T13:43:25.770Z,79.28
2022-11-16T13:48:54.093Z,78.93
2022-11-16T13:54:44.658Z,78.92
2022-11-16T13:59:48.890Z,78.92
2022-11-16T14:05:25.067Z,78.88
2022-11-16T14:11:01.327Z,79.13
2022-11-16T14:16:54.807Z,79.30
2022-11-16T14:22:46.275Z,79.03
2022-11-16T14:28:33.390Z,79.29
2022-11-16T14:33:58.983Z,79.46
2022-11-16T14:39:44.704Z,79.71
2022-11-16T14:45:17.752Z,80.06
2022-11-16T14:50:41.191Z,80.37
2022-11-16T14:56:14.990Z,80.80
2022-11-16T15:01:44.119Z,80.84
2022-11-16T15:07:11.479Z,80.72
2022-11-16T15:12:46.154Z,80.73
2022-11-16T15:18:16.164Z,81.11
2022-11-16T15:23:39.059Z,81.24
2022-11-16T15:29:02.655Z,81.40
2022-11-16T15:34:26.014Z,81.54
2022-11-16T15:39:50.350Z,81.59
2022-11-16T15:45:16.814Z,81.69
2022-11-16T15:50:41.051Z,81.52
2022-11-16T15:56:05.021Z,81.55
2022-11-16T16:01:29.392Z,81.53
2022-11-16T16:07:04.445Z,81.76
2022-11-16T16:12:40.060Z,82.22
2022-11-16T16:18:04.709Z,82.48
2022-11-16T16:23:35.770Z,82.75
2022-11-16T16:28:58.975Z,82.96
2022-11-16T16:34:23.344Z,83.10
2022-11-16T16:39:45.654Z,83.25
2022-11-16T16:45:10.857Z,82.81
2022-11-16T16:50:33.039Z,82.76
2022-11-16T16:55:55.790Z,82.63
2022-11-16T17:01:19.784Z,82.27
2022-11-16T17:06:46.240Z,81.93
2022-11-16T17:12:06.631Z,81.57
2022-11-16T17:17:28.892Z,81.18
2022-11-16T17:22:51.624Z,80.99
2022-11-16T17:28:13.811Z,81.04
2022-11-16T17:33:37.772Z,80.89
2022-11-16T17:39:00.001Z,80.82
2022-11-16T17:44:23.107Z,80.73
2022-11-16T17:49:46.449Z,80.45
2022-11-16T17:55:08.627Z,80.36
2022-11-16T18:00:31.539Z,80.46
2022-11-16T18:05:53.785Z,80.52
2022-11-16T18:11:24.643Z,80.52
2022-11-16T18:16:48.606Z,80.69
2022-11-16T18:22:12.272Z,80.65
2022-11-16T18:27:36.666Z,80.75
2022-11-16T18:33:01.055Z,80.71
2022-11-16T18:38:25.791Z,80.83
2022-11-16T18:43:51.708Z,80.67
2022-11-16T18:49:17.202Z,80.45
2022-11-16T18:54:40.066Z,80.16
2022-11-16T19:00:04.017Z,79.94
2022-11-16T19:05:28.729Z,79.86
2022-11-16T19:10:53.918Z,79.82
2022-11-16T19:16:18.916Z,79.75
2022-11-16T19:21:43.591Z,79.57
2022-11-16T19:27:08.538Z,79.35
2022-11-16T19:32:32.848Z,79.07
2022-11-16T19:37:58.241Z,78.90
2022-11-16T19:43:22.648Z,78.78
2022-11-16T19:48:47.975Z,78.82
2022-11-16T19:54:15.024Z,78.84
2022-11-16T19:59:39.579Z,78.86
2022-11-16T20:05:04.072Z,79.03
2022-11-16T20:10:27.630Z,79.01
2022-11-16T20:15:50.535Z,79.08
2022-11-16T20:21:15.354Z,79.11
2022-11-16T20:26:43.215Z,79.13
2022-11-16T20:32:05.375Z,79.26
2022-11-16T20:37:28.173Z,79.41
2022-11-16T20:42:50.623Z,79.60
2022-11-16T20:48:14.634Z,79.79
2022-11-16T20:53:38.680Z,79.98
2022-11-16T20:59:03.338Z,80.16
2022-11-16T21:04:26.067Z,80.27
2022-11-16T21:10:07.979Z,80.41
2022-11-16T21:15:30.175Z,80.59
2022-11-16T21:20:53.040Z,80.72
2022-11-16T21:26:20.037Z,80.66
2022-11-16T21:31:44.854Z,80.68
2022-11-16T21:37:07.169Z,80.81
2022-11-16T21:42:30.152Z,80.92
2022-11-16T21:47:52.435Z,81.00
2022-11-16T21:53:15.182Z,81.19
2022-11-16T21:58:37.490Z,81.27
2022-11-16T22:04:17.237Z,81.43
2022-11-16T22:09:39.611Z,81.61
2022-11-16T22:15:02.323Z,81.78
2022-11-16T22:20:25.860Z,81.95
2022-11-16T22:25:50.028Z,82.16
2022-11-16T22:31:24.759Z,82.40
2022-11-16T22:36:49.264Z,82.45
2022-11-16T22:42:12.486Z,82.44
2022-11-16T22:47:36.321Z,82.49
2022-11-16T22:53:00.343Z,82.45
2022-11-16T22:58:22.984Z,82.48
2022-11-16T23:03:47.396Z,82.46
2022-11-16T23:09:11.091Z,82.47
2022-11-16T23:14:52.591Z,82.46
2022-11-16T23:20:33.502Z,82.49
2022-11-16T23:26:14.479Z,82.54
2022-11-16T23:31:37.001Z,82.60
2022-11-16T23:37:01.276Z,82.72
2022-11-16T23:42:42.094Z,82.77
2022-11-16T23:48:05.271Z,82.85
2022-11-16T23:53:29.240Z,82.80
2022-11-16T23:58:51.909Z,82.58
